sensor_id;sensor_type;location;lat;lon;timestamp;temperature;humidity
63317;DHT22;49822;41.468;13.560;2023-06-22T00:01:17;24.10;84.80
63317;DHT22;49822;41.468;13.560;2023-06-22T00:03:43;23.90;84.90
63317;DHT22;49822;41.468;13.560;2023-06-22T00:06:09;23.90;84.90
63317;DHT22;49822;41.468;13.560;2023-06-22T00:08:35;23.90;85.30
63317;DHT22;49822;41.468;13.560;2023-06-22T00:11:01;23.90;85.10
63317;DHT22;49822;41.468;13.560;2023-06-22T00:13:27;23.90;84.70
63317;DHT22;49822;41.468;13.560;2023-06-22T00:15:54;23.90;85.00
63317;DHT22;49822;41.468;13.560;2023-06-22T00:18:20;23.80;85.40
63317;DHT22;49822;41.468;13.560;2023-06-22T00:20:46;23.70;86.00
63317;DHT22;49822;41.468;13.560;2023-06-22T00:23:12;23.60;86.60
63317;DHT22;49822;41.468;13.560;2023-06-22T00:25:41;23.50;86.80
63317;DHT22;49822;41.468;13.560;2023-06-22T00:28:07;23.40;86.90
63317;DHT22;49822;41.468;13.560;2023-06-22T00:30:35;23.40;86.80
63317;DHT22;49822;41.468;13.560;2023-06-22T00:33:03;23.40;86.80
63317;DHT22;49822;41.468;13.560;2023-06-22T00:35:29;23.50;86.50
63317;DHT22;49822;41.468;13.560;2023-06-22T00:37:59;23.50;86.70
63317;DHT22;49822;41.468;13.560;2023-06-22T00:40:31;23.40;87.20
63317;DHT22;49822;41.468;13.560;2023-06-22T00:42:58;23.30;86.80
63317;DHT22;49822;41.468;13.560;2023-06-22T00:45:26;23.10;87.20
63317;DHT22;49822;41.468;13.560;2023-06-22T00:47:55;23.00;87.80
63317;DHT22;49822;41.468;13.560;2023-06-22T00:50:23;23.00;87.70
63317;DHT22;49822;41.468;13.560;2023-06-22T00:52:54;23.10;87.30
63317;DHT22;49822;41.468;13.560;2023-06-22T00:55:22;23.30;87.20
63317;DHT22;49822;41.468;13.560;2023-06-22T00:57:49;23.40;86.90
63317;DHT22;49822;41.468;13.560;2023-06-22T01:00:16;23.50;86.70
63317;DHT22;49822;41.468;13.560;2023-06-22T01:02:46;23.50;86.60
63317;DHT22;49822;41.468;13.560;2023-06-22T01:05:14;23.50;86.60
63317;DHT22;49822;41.468;13.560;2023-06-22T01:15:57;23.60;84.90
63317;DHT22;49822;41.468;13.560;2023-06-22T01:18:25;23.60;85.80
63317;DHT22;49822;41.468;13.560;2023-06-22T01:20:54;23.50;86.40
63317;DHT22;49822;41.468;13.560;2023-06-22T01:26:25;23.40;86.50
63317;DHT22;49822;41.468;13.560;2023-06-22T01:28:55;23.40;86.30
63317;DHT22;49822;41.468;13.560;2023-06-22T01:31:25;23.40;86.50
63317;DHT22;49822;41.468;13.560;2023-06-22T01:33:58;23.40;86.20
63317;DHT22;49822;41.468;13.560;2023-06-22T01:36:25;23.40;86.30
63317;DHT22;49822;41.468;13.560;2023-06-22T01:38:52;23.40;86.70
63317;DHT22;49822;41.468;13.560;2023-06-22T01:41:20;23.20;86.70
63317;DHT22;49822;41.468;13.560;2023-06-22T01:43:48;23.10;87.10
63317;DHT22;49822;41.468;13.560;2023-06-22T01:46:14;23.10;87.00
63317;DHT22;49822;41.468;13.560;2023-06-22T01:48:41;23.10;87.20
63317;DHT22;49822;41.468;13.560;2023-06-22T01:51:07;23.20;87.10
63317;DHT22;49822;41.468;13.560;2023-06-22T01:53:34;23.20;86.80
63317;DHT22;49822;41.468;13.560;2023-06-22T01:56:00;23.30;86.80
63317;DHT22;49822;41.468;13.560;2023-06-22T01:58:29;23.30;86.40
63317;DHT22;49822;41.468;13.560;2023-06-22T02:01:00;23.30;86.30
63317;DHT22;49822;41.468;13.560;2023-06-22T02:03:47;23.30;86.30
63317;DHT22;49822;41.468;13.560;2023-06-22T02:06:17;23.30;86.20
63317;DHT22;49822;41.468;13.560;2023-06-22T02:08:54;23.30;86.10
63317;DHT22;49822;41.468;13.560;2023-06-22T02:11:22;23.20;86.30
63317;DHT22;49822;41.468;13.560;2023-06-22T02:13:49;23.20;86.50
63317;DHT22;49822;41.468;13.560;2023-06-22T02:16:16;23.20;86.50
63317;DHT22;49822;41.468;13.560;2023-06-22T02:18:50;23.10;86.40
63317;DHT22;49822;41.468;13.560;2023-06-22T02:21:21;23.00;86.80
63317;DHT22;49822;41.468;13.560;2023-06-22T02:23:47;23.20;86.40
63317;DHT22;49822;41.468;13.560;2023-06-22T02:26:15;23.10;86.40
63317;DHT22;49822;41.468;13.560;2023-06-22T02:28:41;23.10;86.40
63317;DHT22;49822;41.468;13.560;2023-06-22T02:31:08;23.00;86.60
63317;DHT22;49822;41.468;13.560;2023-06-22T02:33:34;22.80;87.20
63317;DHT22;49822;41.468;13.560;2023-06-22T02:36:00;22.70;88.10
63317;DHT22;49822;41.468;13.560;2023-06-22T02:38:31;22.50;88.50
63317;DHT22;49822;41.468;13.560;2023-06-22T02:41:00;22.30;88.60
63317;DHT22;49822;41.468;13.560;2023-06-22T02:43:27;22.40;88.90
63317;DHT22;49822;41.468;13.560;2023-06-22T02:45:53;22.50;88.60
63317;DHT22;49822;41.468;13.560;2023-06-22T02:48:20;22.50;88.10
63317;DHT22;49822;41.468;13.560;2023-06-22T02:50:46;22.50;88.60
63317;DHT22;49822;41.468;13.560;2023-06-22T02:53:12;22.30;89.60
63317;DHT22;49822;41.468;13.560;2023-06-22T02:55:42;22.40;88.60
63317;DHT22;49822;41.468;13.560;2023-06-22T02:58:09;22.40;88.30
63317;DHT22;49822;41.468;13.560;2023-06-22T03:00:38;22.50;88.80
63317;DHT22;49822;41.468;13.560;2023-06-22T03:03:05;22.50;88.70
63317;DHT22;49822;41.468;13.560;2023-06-22T03:05:32;22.60;88.50
63317;DHT22;49822;41.468;13.560;2023-06-22T03:07:59;22.70;88.20
63317;DHT22;49822;41.468;13.560;2023-06-22T03:10:29;22.70;88.00
63317;DHT22;49822;41.468;13.560;2023-06-22T03:13:05;22.60;88.20
63317;DHT22;49822;41.468;13.560;2023-06-22T03:15:32;22.50;88.40
63317;DHT22;49822;41.468;13.560;2023-06-22T03:17:59;22.50;87.70
63317;DHT22;49822;41.468;13.560;2023-06-22T03:20:25;22.50;87.70
63317;DHT22;49822;41.468;13.560;2023-06-22T03:22:52;22.60;87.90
63317;DHT22;49822;41.468;13.560;2023-06-22T03:25:19;22.60;87.80
63317;DHT22;49822;41.468;13.560;2023-06-22T03:27:48;22.60;87.50
63317;DHT22;49822;41.468;13.560;2023-06-22T03:30:14;22.40;88.10
63317;DHT22;49822;41.468;13.560;2023-06-22T03:32:40;21.90;89.80
63317;DHT22;49822;41.468;13.560;2023-06-22T03:35:07;21.60;90.80
63317;DHT22;49822;41.468;13.560;2023-06-22T03:37:35;21.50;91.70
63317;DHT22;49822;41.468;13.560;2023-06-22T03:40:02;21.30;92.20
63317;DHT22;49822;41.468;13.560;2023-06-22T03:42:33;21.20;92.90
63317;DHT22;49822;41.468;13.560;2023-06-22T03:44:59;21.30;92.90
63317;DHT22;49822;41.468;13.560;2023-06-22T03:47:27;21.40;92.30
63317;DHT22;49822;41.468;13.560;2023-06-22T03:49:53;21.50;92.10
63317;DHT22;49822;41.468;13.560;2023-06-22T03:52:21;21.70;91.20
63317;DHT22;49822;41.468;13.560;2023-06-22T03:54:48;21.90;90.70
63317;DHT22;49822;41.468;13.560;2023-06-22T03:57:14;22.00;90.30
63317;DHT22;49822;41.468;13.560;2023-06-22T03:59:40;22.20;89.50
63317;DHT22;49822;41.468;13.560;2023-06-22T04:02:06;22.20;88.80
63317;DHT22;49822;41.468;13.560;2023-06-22T04:04:32;22.30;88.50
63317;DHT22;49822;41.468;13.560;2023-06-22T04:06:59;22.20;89.30
63317;DHT22;49822;41.468;13.560;2023-06-22T04:09:25;22.20;89.70
63317;DHT22;49822;41.468;13.560;2023-06-22T04:11:51;22.00;90.00
63317;DHT22;49822;41.468;13.560;2023-06-22T04:14:19;21.80;90.60
63317;DHT22;49822;41.468;13.560;2023-06-22T04:16:45;21.80;91.50
63317;DHT22;49822;41.468;13.560;2023-06-22T04:19:11;21.70;92.10
63317;DHT22;49822;41.468;13.560;2023-06-22T04:21:43;21.70;92.30
63317;DHT22;49822;41.468;13.560;2023-06-22T04:24:11;21.70;92.40
63317;DHT22;49822;41.468;13.560;2023-06-22T04:26:37;21.70;92.40
63317;DHT22;49822;41.468;13.560;2023-06-22T04:29:04;21.80;92.30
63317;DHT22;49822;41.468;13.560;2023-06-22T04:31:35;21.80;92.50
63317;DHT22;49822;41.468;13.560;2023-06-22T04:34:05;22.00;92.20
63317;DHT22;49822;41.468;13.560;2023-06-22T04:36:39;22.10;91.80
63317;DHT22;49822;41.468;13.560;2023-06-22T04:39:10;22.20;91.60
63317;DHT22;49822;41.468;13.560;2023-06-22T04:41:38;22.30;91.20
63317;DHT22;49822;41.468;13.560;2023-06-22T04:44:12;22.40;91.00
63317;DHT22;49822;41.468;13.560;2023-06-22T04:46:38;22.50;91.10
63317;DHT22;49822;41.468;13.560;2023-06-22T04:49:09;22.70;90.40
63317;DHT22;49822;41.468;13.560;2023-06-22T04:51:44;22.80;90.30
63317;DHT22;49822;41.468;13.560;2023-06-22T04:54:11;22.90;90.00
63317;DHT22;49822;41.468;13.560;2023-06-22T04:56:37;23.10;89.20
63317;DHT22;49822;41.468;13.560;2023-06-22T04:59:14;23.20;88.70
63317;DHT22;49822;41.468;13.560;2023-06-22T05:02:08;23.30;88.50
63317;DHT22;49822;41.468;13.560;2023-06-22T05:04:35;23.50;88.20
63317;DHT22;49822;41.468;13.560;2023-06-22T05:07:04;23.70;87.60
63317;DHT22;49822;41.468;13.560;2023-06-22T05:09:31;23.70;87.90
63317;DHT22;49822;41.468;13.560;2023-06-22T05:11:58;23.80;87.40
63317;DHT22;49822;41.468;13.560;2023-06-22T05:14:26;23.90;87.40
63317;DHT22;49822;41.468;13.560;2023-06-22T05:16:52;23.90;87.40
63317;DHT22;49822;41.468;13.560;2023-06-22T05:19:18;24.00;87.10
63317;DHT22;49822;41.468;13.560;2023-06-22T05:21:44;24.00;86.80
63317;DHT22;49822;41.468;13.560;2023-06-22T05:24:10;24.10;86.80
63317;DHT22;49822;41.468;13.560;2023-06-22T05:26:36;24.10;86.60
63317;DHT22;49822;41.468;13.560;2023-06-22T05:29:03;24.20;86.50
63317;DHT22;49822;41.468;13.560;2023-06-22T05:31:29;24.30;86.10
63317;DHT22;49822;41.468;13.560;2023-06-22T05:33:56;24.30;86.30
63317;DHT22;49822;41.468;13.560;2023-06-22T05:36:22;24.30;86.10
63317;DHT22;49822;41.468;13.560;2023-06-22T05:38:52;24.40;85.90
63317;DHT22;49822;41.468;13.560;2023-06-22T05:41:18;24.30;86.70
63317;DHT22;49822;41.468;13.560;2023-06-22T05:43:45;24.30;86.30
63317;DHT22;49822;41.468;13.560;2023-06-22T05:46:11;24.40;86.10
63317;DHT22;49822;41.468;13.560;2023-06-22T05:48:37;24.30;86.40
63317;DHT22;49822;41.468;13.560;2023-06-22T05:51:03;24.30;86.00
63317;DHT22;49822;41.468;13.560;2023-06-22T05:53:29;24.40;85.40
63317;DHT22;49822;41.468;13.560;2023-06-22T05:55:55;24.60;85.30
63317;DHT22;49822;41.468;13.560;2023-06-22T05:58:21;24.70;85.40
63317;DHT22;49822;41.468;13.560;2023-06-22T06:00:47;24.70;84.90
63317;DHT22;49822;41.468;13.560;2023-06-22T06:03:14;24.80;84.80
63317;DHT22;49822;41.468;13.560;2023-06-22T06:05:43;25.00;84.90
63317;DHT22;49822;41.468;13.560;2023-06-22T06:08:09;25.10;84.70
63317;DHT22;49822;41.468;13.560;2023-06-22T06:10:37;25.20;84.50
63317;DHT22;49822;41.468;13.560;2023-06-22T06:13:03;25.40;84.80
63317;DHT22;49822;41.468;13.560;2023-06-22T06:15:32;25.40;84.50
63317;DHT22;49822;41.468;13.560;2023-06-22T06:17:59;25.60;84.30
63317;DHT22;49822;41.468;13.560;2023-06-22T06:20:26;25.70;84.10
63317;DHT22;49822;41.468;13.560;2023-06-22T06:22:54;25.80;83.80
63317;DHT22;49822;41.468;13.560;2023-06-22T06:25:20;25.90;83.50
63317;DHT22;49822;41.468;13.560;2023-06-22T06:27:49;26.10;83.20
63317;DHT22;49822;41.468;13.560;2023-06-22T06:30:18;26.10;83.20
63317;DHT22;49822;41.468;13.560;2023-06-22T06:32:46;26.10;82.60
63317;DHT22;49822;41.468;13.560;2023-06-22T06:35:14;26.20;82.70
63317;DHT22;49822;41.468;13.560;2023-06-22T06:37:47;26.30;82.70
63317;DHT22;49822;41.468;13.560;2023-06-22T06:40:14;26.40;82.30
63317;DHT22;49822;41.468;13.560;2023-06-22T06:42:45;26.40;82.00
63317;DHT22;49822;41.468;13.560;2023-06-22T06:45:22;26.60;82.00
63317;DHT22;49822;41.468;13.560;2023-06-22T06:47:50;26.70;81.70
63317;DHT22;49822;41.468;13.560;2023-06-22T06:50:16;26.90;81.80
63317;DHT22;49822;41.468;13.560;2023-06-22T06:52:43;26.90;81.50
63317;DHT22;49822;41.468;13.560;2023-06-22T06:55:11;27.10;81.40
63317;DHT22;49822;41.468;13.560;2023-06-22T06:57:38;27.30;80.90
63317;DHT22;49822;41.468;13.560;2023-06-22T07:00:08;27.30;80.60
63317;DHT22;49822;41.468;13.560;2023-06-22T07:02:44;27.40;80.70
63317;DHT22;49822;41.468;13.560;2023-06-22T07:05:12;27.50;80.50
63317;DHT22;49822;41.468;13.560;2023-06-22T07:07:39;27.60;80.30
63317;DHT22;49822;41.468;13.560;2023-06-22T07:10:06;27.70;80.40
63317;DHT22;49822;41.468;13.560;2023-06-22T07:12:33;27.80;79.90
63317;DHT22;49822;41.468;13.560;2023-06-22T07:15:04;27.80;79.60
63317;DHT22;49822;41.468;13.560;2023-06-22T07:17:35;27.90;79.30
63317;DHT22;49822;41.468;13.560;2023-06-22T07:20:02;28.00;79.20
63317;DHT22;49822;41.468;13.560;2023-06-22T07:22:34;28.10;79.20
63317;DHT22;49822;41.468;13.560;2023-06-22T07:25:00;28.10;78.90
63317;DHT22;49822;41.468;13.560;2023-06-22T07:27:27;28.20;79.00
63317;DHT22;49822;41.468;13.560;2023-06-22T07:29:53;28.30;79.00
63317;DHT22;49822;41.468;13.560;2023-06-22T07:32:20;28.40;78.80
63317;DHT22;49822;41.468;13.560;2023-06-22T07:34:47;28.40;78.80
63317;DHT22;49822;41.468;13.560;2023-06-22T07:37:13;28.60;79.20
63317;DHT22;49822;41.468;13.560;2023-06-22T07:39:39;28.60;78.90
63317;DHT22;49822;41.468;13.560;2023-06-22T07:42:05;28.80;78.90
63317;DHT22;49822;41.468;13.560;2023-06-22T07:44:31;28.90;78.60
63317;DHT22;49822;41.468;13.560;2023-06-22T07:46:57;28.90;78.90
63317;DHT22;49822;41.468;13.560;2023-06-22T07:49:24;29.10;78.50
63317;DHT22;49822;41.468;13.560;2023-06-22T07:51:50;29.20;77.70
63317;DHT22;49822;41.468;13.560;2023-06-22T07:54:16;29.20;77.50
63317;DHT22;49822;41.468;13.560;2023-06-22T07:56:43;29.30;77.50
63317;DHT22;49822;41.468;13.560;2023-06-22T07:59:09;29.40;77.30
63317;DHT22;49822;41.468;13.560;2023-06-22T08:01:35;29.40;76.90
63317;DHT22;49822;41.468;13.560;2023-06-22T08:04:01;29.40;76.50
63317;DHT22;49822;41.468;13.560;2023-06-22T08:06:30;29.50;76.50
63317;DHT22;49822;41.468;13.560;2023-06-22T08:08:56;29.60;76.40
63317;DHT22;49822;41.468;13.560;2023-06-22T08:11:24;29.80;76.70
63317;DHT22;49822;41.468;13.560;2023-06-22T08:13:52;29.80;76.40
63317;DHT22;49822;41.468;13.560;2023-06-22T08:16:18;29.80;76.50
63317;DHT22;49822;41.468;13.560;2023-06-22T08:18:44;29.90;76.50
63317;DHT22;49822;41.468;13.560;2023-06-22T08:21:10;29.90;76.30
63317;DHT22;49822;41.468;13.560;2023-06-22T08:23:37;30.20;75.90
63317;DHT22;49822;41.468;13.560;2023-06-22T08:26:04;30.20;75.50
63317;DHT22;49822;41.468;13.560;2023-06-22T08:28:33;30.30;74.10
63317;DHT22;49822;41.468;13.560;2023-06-22T08:31:01;30.30;75.40
63317;DHT22;49822;41.468;13.560;2023-06-22T08:33:27;30.30;74.60
63317;DHT22;49822;41.468;13.560;2023-06-22T08:35:57;30.40;75.20
63317;DHT22;49822;41.468;13.560;2023-06-22T08:38:23;30.50;74.90
63317;DHT22;49822;41.468;13.560;2023-06-22T08:40:50;30.70;74.90
63317;DHT22;49822;41.468;13.560;2023-06-22T08:43:16;30.80;74.60
63317;DHT22;49822;41.468;13.560;2023-06-22T08:45:42;30.80;74.50
63317;DHT22;49822;41.468;13.560;2023-06-22T08:48:10;31.00;74.80
63317;DHT22;49822;41.468;13.560;2023-06-22T08:50:36;31.00;74.50
63317;DHT22;49822;41.468;13.560;2023-06-22T08:53:02;31.10;74.00
63317;DHT22;49822;41.468;13.560;2023-06-22T08:55:28;31.20;72.80
63317;DHT22;49822;41.468;13.560;2023-06-22T08:57:54;31.20;74.10
63317;DHT22;49822;41.468;13.560;2023-06-22T09:00:22;31.40;73.00
63317;DHT22;49822;41.468;13.560;2023-06-22T09:02:50;31.50;73.40
63317;DHT22;49822;41.468;13.560;2023-06-22T09:05:16;31.60;72.70
63317;DHT22;49822;41.468;13.560;2023-06-22T09:07:42;31.80;72.40
63317;DHT22;49822;41.468;13.560;2023-06-22T09:10:09;31.80;72.20
63317;DHT22;49822;41.468;13.560;2023-06-22T09:12:35;31.90;70.80
63317;DHT22;49822;41.468;13.560;2023-06-22T09:15:03;31.90;69.90
63317;DHT22;49822;41.468;13.560;2023-06-22T09:17:30;32.00;70.90
63317;DHT22;49822;41.468;13.560;2023-06-22T09:19:57;32.10;71.10
63317;DHT22;49822;41.468;13.560;2023-06-22T09:22:23;32.20;70.50
63317;DHT22;49822;41.468;13.560;2023-06-22T09:24:50;32.20;69.70
63317;DHT22;49822;41.468;13.560;2023-06-22T09:27:16;32.20;70.50
63317;DHT22;49822;41.468;13.560;2023-06-22T09:29:42;32.30;70.10
63317;DHT22;49822;41.468;13.560;2023-06-22T09:32:08;32.30;70.70
63317;DHT22;49822;41.468;13.560;2023-06-22T09:34:34;32.40;71.10
63317;DHT22;49822;41.468;13.560;2023-06-22T09:37:00;32.40;71.20
63317;DHT22;49822;41.468;13.560;2023-06-22T09:39:29;32.40;70.90
63317;DHT22;49822;41.468;13.560;2023-06-22T09:42:00;32.50;71.20
63317;DHT22;49822;41.468;13.560;2023-06-22T09:44:26;32.60;71.20
63317;DHT22;49822;41.468;13.560;2023-06-22T09:46:53;32.60;70.40
63317;DHT22;49822;41.468;13.560;2023-06-22T09:49:22;32.60;71.10
63317;DHT22;49822;41.468;13.560;2023-06-22T09:51:48;32.60;71.30
63317;DHT22;49822;41.468;13.560;2023-06-22T09:54:15;32.70;71.10
63317;DHT22;49822;41.468;13.560;2023-06-22T09:56:41;32.80;71.10
63317;DHT22;49822;41.468;13.560;2023-06-22T09:59:07;32.80;71.00
63317;DHT22;49822;41.468;13.560;2023-06-22T10:01:33;32.90;71.40
63317;DHT22;49822;41.468;13.560;2023-06-22T10:03:59;33.10;71.20
63317;DHT22;49822;41.468;13.560;2023-06-22T10:06:27;33.20;70.20
63317;DHT22;49822;41.468;13.560;2023-06-22T10:08:53;33.20;69.40
63317;DHT22;49822;41.468;13.560;2023-06-22T10:11:19;33.10;71.00
63317;DHT22;49822;41.468;13.560;2023-06-22T10:13:46;33.20;71.20
63317;DHT22;49822;41.468;13.560;2023-06-22T10:16:12;33.30;70.90
63317;DHT22;49822;41.468;13.560;2023-06-22T10:18:38;33.50;70.00
63317;DHT22;49822;41.468;13.560;2023-06-22T10:21:04;33.60;69.70
63317;DHT22;49822;41.468;13.560;2023-06-22T10:23:30;33.70;69.20
63317;DHT22;49822;41.468;13.560;2023-06-22T10:25:56;33.70;69.40
63317;DHT22;49822;41.468;13.560;2023-06-22T10:28:30;33.90;69.90
63317;DHT22;49822;41.468;13.560;2023-06-22T10:30:56;34.00;69.90
63317;DHT22;49822;41.468;13.560;2023-06-22T10:33:22;34.00;69.50
63317;DHT22;49822;41.468;13.560;2023-06-22T10:35:49;33.90;68.50
63317;DHT22;49822;41.468;13.560;2023-06-22T10:38:15;33.90;69.40
63317;DHT22;49822;41.468;13.560;2023-06-22T10:40:42;34.10;69.70
63317;DHT22;49822;41.468;13.560;2023-06-22T10:43:08;34.20;69.90
63317;DHT22;49822;41.468;13.560;2023-06-22T10:45:35;34.30;69.20
63317;DHT22;49822;41.468;13.560;2023-06-22T10:48:03;34.30;69.00
63317;DHT22;49822;41.468;13.560;2023-06-22T10:50:29;34.50;67.80
63317;DHT22;49822;41.468;13.560;2023-06-22T10:52:55;34.20;66.90
63317;DHT22;49822;41.468;13.560;2023-06-22T10:55:21;34.30;68.30
63317;DHT22;49822;41.468;13.560;2023-06-22T10:57:48;34.50;68.20
63317;DHT22;49822;41.468;13.560;2023-06-22T11:00:15;34.60;66.80
63317;DHT22;49822;41.468;13.560;2023-06-22T11:02:42;34.80;66.80
63317;DHT22;49822;41.468;13.560;2023-06-22T11:05:09;34.90;66.90
63317;DHT22;49822;41.468;13.560;2023-06-22T11:07:36;34.80;66.10
63317;DHT22;49822;41.468;13.560;2023-06-22T11:10:04;35.00;66.90
63317;DHT22;49822;41.468;13.560;2023-06-22T11:12:35;35.10;65.90
63317;DHT22;49822;41.468;13.560;2023-06-22T11:15:02;35.20;65.90
63317;DHT22;49822;41.468;13.560;2023-06-22T11:17:28;35.30;66.20
63317;DHT22;49822;41.468;13.560;2023-06-22T11:19:54;35.30;65.60
63317;DHT22;49822;41.468;13.560;2023-06-22T11:22:20;35.50;66.60
63317;DHT22;49822;41.468;13.560;2023-06-22T11:24:49;35.60;66.10
63317;DHT22;49822;41.468;13.560;2023-06-22T11:27:15;35.80;65.40
63317;DHT22;49822;41.468;13.560;2023-06-22T11:29:41;35.80;65.20
63317;DHT22;49822;41.468;13.560;2023-06-22T11:32:08;35.60;64.80
63317;DHT22;49822;41.468;13.560;2023-06-22T11:34:34;35.70;65.60
63317;DHT22;49822;41.468;13.560;2023-06-22T11:37:04;35.90;64.30
63317;DHT22;49822;41.468;13.560;2023-06-22T11:39:30;35.80;64.70
63317;DHT22;49822;41.468;13.560;2023-06-22T11:41:58;35.80;64.30
63317;DHT22;49822;41.468;13.560;2023-06-22T11:44:27;36.00;64.50
63317;DHT22;49822;41.468;13.560;2023-06-22T11:46:54;36.00;64.80
63317;DHT22;49822;41.468;13.560;2023-06-22T11:49:24;36.10;63.50
63317;DHT22;49822;41.468;13.560;2023-06-22T11:51:50;36.30;63.90
63317;DHT22;49822;41.468;13.560;2023-06-22T11:54:16;36.50;64.40
63317;DHT22;49822;41.468;13.560;2023-06-22T11:56:42;36.50;62.00
63317;DHT22;49822;41.468;13.560;2023-06-22T11:59:08;36.70;63.60
63317;DHT22;49822;41.468;13.560;2023-06-22T12:01:35;36.70;62.70
63317;DHT22;49822;41.468;13.560;2023-06-22T12:04:01;36.70;63.30
63317;DHT22;49822;41.468;13.560;2023-06-22T12:06:27;36.80;63.00
63317;DHT22;49822;41.468;13.560;2023-06-22T12:08:53;36.90;62.50
63317;DHT22;49822;41.468;13.560;2023-06-22T12:11:19;36.90;62.90
63317;DHT22;49822;41.468;13.560;2023-06-22T12:13:45;36.90;62.50
63317;DHT22;49822;41.468;13.560;2023-06-22T12:16:18;37.10;62.50
63317;DHT22;49822;41.468;13.560;2023-06-22T12:18:44;37.30;62.90
63317;DHT22;49822;41.468;13.560;2023-06-22T12:21:11;37.50;61.50
63317;DHT22;49822;41.468;13.560;2023-06-22T12:23:38;37.60;62.40
63317;DHT22;49822;41.468;13.560;2023-06-22T12:26:04;37.60;61.70
63317;DHT22;49822;41.468;13.560;2023-06-22T12:28:31;37.70;62.30
63317;DHT22;49822;41.468;13.560;2023-06-22T12:30:57;38.00;62.10
63317;DHT22;49822;41.468;13.560;2023-06-22T12:33:26;38.10;61.60
63317;DHT22;49822;41.468;13.560;2023-06-22T12:35:56;38.20;61.30
63317;DHT22;49822;41.468;13.560;2023-06-22T12:38:22;38.20;60.20
63317;DHT22;49822;41.468;13.560;2023-06-22T12:40:52;38.00;59.50
63317;DHT22;49822;41.468;13.560;2023-06-22T12:43:18;38.20;61.20
63317;DHT22;49822;41.468;13.560;2023-06-22T12:45:45;38.20;61.10
63317;DHT22;49822;41.468;13.560;2023-06-22T12:48:13;38.30;60.80
63317;DHT22;49822;41.468;13.560;2023-06-22T12:50:39;38.30;61.20
63317;DHT22;49822;41.468;13.560;2023-06-22T12:53:05;38.40;60.50
63317;DHT22;49822;41.468;13.560;2023-06-22T12:55:33;38.50;60.90
63317;DHT22;49822;41.468;13.560;2023-06-22T12:57:59;38.60;60.70
63317;DHT22;49822;41.468;13.560;2023-06-22T13:00:28;38.60;60.50
63317;DHT22;49822;41.468;13.560;2023-06-22T13:02:57;38.70;60.20
63317;DHT22;49822;41.468;13.560;2023-06-22T13:05:24;38.60;60.10
63317;DHT22;49822;41.468;13.560;2023-06-22T13:07:50;38.70;59.80
63317;DHT22;49822;41.468;13.560;2023-06-22T13:10:16;38.90;60.70
63317;DHT22;49822;41.468;13.560;2023-06-22T13:12:42;38.80;60.90
63317;DHT22;49822;41.468;13.560;2023-06-22T13:15:08;38.80;60.10
63317;DHT22;49822;41.468;13.560;2023-06-22T13:17:35;38.70;61.00
63317;DHT22;49822;41.468;13.560;2023-06-22T13:20:01;38.90;61.40
63317;DHT22;49822;41.468;13.560;2023-06-22T13:22:34;39.00;59.80
63317;DHT22;49822;41.468;13.560;2023-06-22T13:25:06;38.30;61.60
63317;DHT22;49822;41.468;13.560;2023-06-22T13:27:33;37.60;64.10
63317;DHT22;49822;41.468;13.560;2023-06-22T13:29:59;37.10;63.10
63317;DHT22;49822;41.468;13.560;2023-06-22T13:32:25;36.70;63.60
63317;DHT22;49822;41.468;13.560;2023-06-22T13:34:53;36.60;64.70
63317;DHT22;49822;41.468;13.560;2023-06-22T13:37:19;36.70;64.90
63317;DHT22;49822;41.468;13.560;2023-06-22T13:39:46;37.00;64.80
63317;DHT22;49822;41.468;13.560;2023-06-22T13:42:13;37.20;63.70
63317;DHT22;49822;41.468;13.560;2023-06-22T13:44:39;37.60;64.20
63317;DHT22;49822;41.468;13.560;2023-06-22T13:47:06;37.20;63.60
63317;DHT22;49822;41.468;13.560;2023-06-22T13:49:34;37.30;64.70
63317;DHT22;49822;41.468;13.560;2023-06-22T13:52:01;37.10;63.50
63317;DHT22;49822;41.468;13.560;2023-06-22T13:54:29;37.00;64.50
63317;DHT22;49822;41.468;13.560;2023-06-22T13:56:55;36.90;64.20
63317;DHT22;49822;41.468;13.560;2023-06-22T13:59:22;36.80;65.60
63317;DHT22;49822;41.468;13.560;2023-06-22T14:01:48;36.50;64.80
63317;DHT22;49822;41.468;13.560;2023-06-22T14:04:15;36.60;65.50
63317;DHT22;49822;41.468;13.560;2023-06-22T14:06:43;36.40;65.20
63317;DHT22;49822;41.468;13.560;2023-06-22T14:09:13;36.20;65.40
63317;DHT22;49822;41.468;13.560;2023-06-22T14:11:39;36.20;65.00
63317;DHT22;49822;41.468;13.560;2023-06-22T14:14:05;35.90;65.60
63317;DHT22;49822;41.468;13.560;2023-06-22T14:16:31;35.50;67.50
63317;DHT22;49822;41.468;13.560;2023-06-22T14:18:58;35.60;66.70
63317;DHT22;49822;41.468;13.560;2023-06-22T14:21:25;35.80;66.40
63317;DHT22;49822;41.468;13.560;2023-06-22T14:23:51;35.60;66.90
63317;DHT22;49822;41.468;13.560;2023-06-22T14:26:18;35.60;67.00
63317;DHT22;49822;41.468;13.560;2023-06-22T14:28:48;35.20;66.80
63317;DHT22;49822;41.468;13.560;2023-06-22T14:31:18;34.90;67.50
63317;DHT22;49822;41.468;13.560;2023-06-22T14:33:49;35.10;67.30
63317;DHT22;49822;41.468;13.560;2023-06-22T14:36:16;35.00;67.00
63317;DHT22;49822;41.468;13.560;2023-06-22T14:38:43;35.20;66.90
63317;DHT22;49822;41.468;13.560;2023-06-22T14:41:10;35.30;67.30
63317;DHT22;49822;41.468;13.560;2023-06-22T14:43:36;35.20;66.60
63317;DHT22;49822;41.468;13.560;2023-06-22T14:46:02;35.20;67.20
63317;DHT22;49822;41.468;13.560;2023-06-22T14:48:28;35.40;67.30
63317;DHT22;49822;41.468;13.560;2023-06-22T14:50:54;35.20;67.40
63317;DHT22;49822;41.468;13.560;2023-06-22T14:53:20;35.20;67.10
63317;DHT22;49822;41.468;13.560;2023-06-22T14:55:46;35.30;67.50
63317;DHT22;49822;41.468;13.560;2023-06-22T14:58:12;35.30;66.60
63317;DHT22;49822;41.468;13.560;2023-06-22T15:00:40;35.20;67.40
63317;DHT22;49822;41.468;13.560;2023-06-22T15:03:08;35.00;68.10
63317;DHT22;49822;41.468;13.560;2023-06-22T15:05:37;34.80;67.40
63317;DHT22;49822;41.468;13.560;2023-06-22T15:08:03;35.00;68.50
63317;DHT22;49822;41.468;13.560;2023-06-22T15:10:29;34.70;68.20
63317;DHT22;49822;41.468;13.560;2023-06-22T15:12:55;34.60;67.90
63317;DHT22;49822;41.468;13.560;2023-06-22T15:15:23;34.50;69.10
63317;DHT22;49822;41.468;13.560;2023-06-22T15:17:51;34.30;69.40
63317;DHT22;49822;41.468;13.560;2023-06-22T15:20:17;34.20;70.00
63317;DHT22;49822;41.468;13.560;2023-06-22T15:22:43;34.00;70.00
63317;DHT22;49822;41.468;13.560;2023-06-22T15:25:09;34.10;70.20
63317;DHT22;49822;41.468;13.560;2023-06-22T15:27:36;34.20;70.70